createdAt,value
2023-04-20T00:01:31.935Z,0.50
2023-04-20T00:04:00.035Z,0.75
2023-04-20T00:06:30.261Z,0.60
2023-04-20T00:08:58.272Z,0.50
2023-04-20T00:11:26.738Z,0.55
2023-04-20T00:13:54.909Z,0.60
2023-04-20T00:16:24.273Z,0.50
2023-04-20T00:18:52.703Z,0.50
2023-04-20T00:21:23.911Z,0.68
2023-04-20T00:23:52.239Z,0.43
2023-04-20T00:26:21.221Z,0.63
2023-04-20T00:28:53.832Z,0.85
2023-04-20T00:31:22.175Z,0.40
2023-04-20T00:33:51.645Z,0.55
2023-04-20T00:36:19.672Z,0.50
2023-04-20T00:38:47.703Z,0.38
2023-04-20T00:41:16.004Z,0.75
2023-04-20T00:43:51.601Z,0.50
2023-04-20T00:46:19.858Z,0.50
2023-04-20T00:48:48.200Z,0.40
2023-04-20T00:51:17.641Z,0.63
2023-04-20T00:53:46.285Z,0.50
2023-04-20T00:56:16.456Z,0.47
2023-04-20T00:58:44.706Z,0.70
2023-04-20T01:01:13.095Z,0.45
2023-04-20T01:03:41.702Z,0.50
2023-04-20T01:06:10.146Z,0.40
2023-04-20T01:08:47.051Z,0.63
2023-04-20T01:11:15.591Z,0.52
2023-04-20T01:13:44.243Z,0.63
2023-04-20T01:16:12.863Z,0.60
2023-04-20T01:18:46.478Z,0.75
2023-04-20T01:21:16.538Z,0.60
2023-04-20T01:23:46.717Z,0.50
2023-04-20T01:26:16.538Z,0.70
2023-04-20T01:28:44.570Z,0.30
2023-04-20T01:31:13.618Z,0.50
2023-04-20T01:33:42.046Z,0.32
2023-04-20T01:36:10.891Z,0.50
2023-04-20T01:38:39.151Z,0.50
2023-04-20T01:41:10.701Z,0.57
2023-04-20T01:43:40.054Z,0.55
2023-04-20T01:46:08.575Z,0.30
2023-04-20T01:48:36.606Z,0.40
2023-04-20T01:51:04.757Z,0.60
2023-04-20T01:53:34.055Z,0.60
2023-04-20T01:56:02.103Z,0.38
2023-04-20T01:58:31.684Z,0.38
2023-04-20T02:01:01.950Z,0.55
2023-04-20T02:03:30.336Z,0.55
2023-04-20T02:05:58.297Z,0.50
2023-04-20T02:08:30.987Z,0.45
2023-04-20T02:10:58.962Z,0.40
2023-04-20T02:13:27.176Z,0.55
2023-04-20T02:15:57.073Z,1.23
2023-04-20T02:18:25.578Z,0.35
2023-04-20T02:20:53.573Z,0.40
2023-04-20T02:23:21.588Z,0.40
2023-04-20T02:25:49.597Z,0.50
2023-04-20T02:28:17.601Z,0.50
2023-04-20T02:30:45.812Z,0.40
2023-04-20T02:33:15.505Z,0.50
2023-04-20T02:35:43.767Z,0.35
2023-04-20T02:38:12.249Z,0.40
2023-04-20T02:40:40.368Z,0.43
2023-04-20T02:43:09.070Z,0.30
2023-04-20T02:45:38.124Z,0.40
2023-04-20T02:48:07.550Z,0.63
2023-04-20T02:50:38.430Z,0.65
2023-04-20T02:53:25.825Z,0.30
2023-04-20T02:56:13.385Z,0.57
2023-04-20T02:58:53.178Z,0.55
2023-04-20T03:01:26.020Z,0.40
2023-04-20T03:04:02.201Z,0.60
2023-04-20T03:06:33.432Z,0.30
2023-04-20T03:09:01.997Z,0.52
2023-04-20T03:11:55.311Z,0.45
2023-04-20T03:14:41.516Z,0.50
2023-04-20T03:17:10.008Z,0.30
2023-04-20T03:19:38.010Z,0.50
2023-04-20T03:22:08.050Z,0.40
2023-04-20T03:24:37.570Z,0.40
2023-04-20T03:27:15.382Z,0.73
2023-04-20T03:30:00.391Z,0.47
2023-04-20T03:32:30.750Z,0.40
2023-04-20T03:35:00.208Z,0.50
2023-04-20T03:37:29.566Z,0.70
2023-04-20T03:39:57.578Z,0.38
2023-04-20T03:42:26.415Z,0.47
2023-04-20T03:44:55.758Z,0.50
2023-04-20T03:47:23.761Z,0.50
2023-04-20T03:49:51.990Z,0.55
2023-04-20T03:52:20.011Z,0.70
2023-04-20T03:54:49.469Z,0.50
2023-04-20T03:57:18.410Z,0.68
2023-04-20T03:59:46.528Z,0.80
2023-04-20T04:02:18.559Z,1.02
2023-04-20T04:04:48.030Z,0.50
2023-04-20T04:07:16.113Z,0.70
2023-04-20T04:09:44.961Z,0.55
2023-04-20T04:12:15.748Z,0.40
2023-04-20T04:14:43.952Z,0.75
2023-04-20T04:17:15.258Z,0.68
2023-04-20T04:19:43.780Z,0.70
2023-04-20T04:22:11.769Z,0.50
2023-04-20T04:24:49.369Z,0.63
2023-04-20T04:27:22.307Z,0.80
2023-04-20T04:29:57.739Z,0.60
2023-04-20T04:32:26.030Z,0.75
2023-04-20T04:34:54.885Z,0.60
2023-04-20T04:37:23.046Z,0.70
2023-04-20T04:39:55.066Z,1.05
2023-04-20T04:42:35.498Z,0.80
2023-04-20T04:45:06.448Z,0.70
2023-04-20T04:47:37.425Z,0.82
2023-04-20T04:50:10.571Z,0.88
2023-04-20T04:52:38.659Z,0.60
2023-04-20T04:55:09.259Z,0.60
2023-04-20T04:57:39.351Z,0.70
2023-04-20T05:00:09.699Z,0.63
2023-04-20T05:02:37.925Z,0.60
2023-04-20T05:05:09.427Z,0.50
2023-04-20T05:07:38.421Z,0.68
2023-04-20T05:10:08.093Z,0.52
2023-04-20T05:12:36.164Z,0.77
2023-04-20T05:15:06.171Z,0.50
2023-04-20T05:17:34.286Z,0.85
2023-04-20T05:20:02.303Z,0.82
2023-04-20T05:22:30.387Z,0.77
2023-04-20T05:24:58.370Z,0.98
2023-04-20T05:27:26.540Z,1.00
2023-04-20T05:29:54.526Z,0.63
2023-04-20T05:32:23.944Z,0.60
2023-04-20T05:34:51.955Z,0.70
2023-04-20T05:37:20.002Z,0.70
2023-04-20T05:39:48.033Z,0.88
2023-04-20T05:42:16.078Z,0.80
2023-04-20T05:44:44.051Z,0.52
2023-04-20T05:47:12.138Z,0.68
2023-04-20T05:49:41.610Z,0.80
2023-04-20T05:52:09.577Z,0.68
2023-04-20T05:54:37.674Z,0.90
2023-04-20T05:57:05.895Z,0.80
2023-04-20T05:59:34.041Z,0.65
2023-04-20T06:02:02.482Z,0.80
2023-04-20T06:04:30.898Z,0.70
2023-04-20T06:07:01.273Z,0.80
2023-04-20T06:09:29.327Z,1.00
2023-04-20T06:11:57.353Z,0.65
2023-04-20T06:14:25.415Z,1.38
2023-04-20T06:16:53.281Z,0.65
2023-04-20T06:19:21.289Z,0.68
2023-04-20T06:21:49.592Z,0.80
2023-04-20T06:24:19.154Z,0.60
2023-04-20T06:26:47.119Z,1.02
2023-04-20T06:29:15.246Z,0.98
2023-04-20T06:31:43.436Z,0.50
2023-04-20T06:34:12.312Z,0.50
2023-04-20T06:36:43.508Z,0.57
2023-04-20T06:39:11.930Z,1.08
2023-04-20T06:41:41.302Z,1.02
2023-04-20T06:44:09.356Z,0.80
2023-04-20T06:46:37.387Z,0.60
2023-04-20T06:49:05.476Z,0.70
2023-04-20T06:51:34.652Z,0.85
2023-04-20T06:54:02.626Z,0.90
2023-04-20T06:56:30.634Z,0.80
2023-04-20T06:59:00.183Z,0.80
2023-04-20T07:01:28.364Z,1.10
2023-04-20T07:03:56.754Z,0.88
2023-04-20T07:06:25.393Z,1.33
2023-04-20T07:08:53.410Z,1.00
2023-04-20T07:11:21.340Z,0.80
2023-04-20T07:13:49.306Z,0.85
2023-04-20T07:16:18.742Z,0.80
2023-04-20T07:18:46.770Z,1.00
2023-04-20T07:21:15.944Z,0.70
2023-04-20T07:23:45.119Z,0.52
2023-04-20T07:26:13.388Z,1.08
2023-04-20T07:28:42.010Z,0.80
2023-04-20T07:31:10.028Z,0.82
2023-04-20T07:33:39.426Z,0.80
2023-04-20T07:36:07.729Z,1.13
2023-04-20T07:38:35.748Z,0.57
2023-04-20T07:41:04.002Z,0.60
2023-04-20T07:43:31.956Z,0.60
2023-04-20T07:45:59.929Z,0.75
2023-04-20T07:48:28.045Z,0.75
2023-04-20T07:50:57.413Z,0.88
2023-04-20T07:53:25.313Z,1.02
2023-04-20T07:55:53.319Z,1.08
2023-04-20T07:58:21.963Z,0.82
2023-04-20T08:00:49.973Z,0.70
2023-04-20T08:03:18.041Z,0.68
2023-04-20T08:05:47.213Z,0.88
2023-04-20T08:08:17.879Z,1.00
2023-04-20T08:10:45.896Z,1.02
2023-04-20T08:13:13.841Z,0.55
2023-04-20T08:15:41.812Z,0.82
2023-04-20T08:18:11.337Z,0.70
2023-04-20T08:20:39.439Z,0.32
2023-04-20T08:23:07.540Z,0.50
2023-04-20T08:25:40.060Z,0.40
2023-04-20T08:28:11.862Z,0.80
2023-04-20T08:30:41.454Z,0.68
2023-04-20T08:33:09.419Z,0.50
2023-04-20T08:35:37.486Z,0.80
2023-04-20T08:38:05.438Z,0.68
2023-04-20T08:40:33.650Z,0.70
2023-04-20T08:43:02.969Z,0.95
2023-04-20T08:45:31.523Z,0.70
2023-04-20T08:48:00.204Z,0.60
2023-04-20T08:50:28.322Z,0.68
2023-04-20T08:52:56.673Z,0.73
2023-04-20T08:55:25.557Z,0.60
2023-04-20T08:57:53.679Z,0.50
2023-04-20T09:00:23.429Z,0.60
2023-04-20T09:02:52.907Z,0.85
2023-04-20T09:05:28.499Z,0.52
2023-04-20T09:07:57.889Z,0.70
2023-04-20T09:10:26.833Z,0.90
2023-04-20T09:12:54.891Z,0.70
2023-04-20T09:15:28.834Z,0.88
2023-04-20T09:17:57.470Z,0.65
2023-04-20T09:20:32.653Z,0.60
2023-04-20T09:23:12.966Z,0.88
2023-04-20T09:25:43.535Z,0.60
2023-04-20T09:28:11.616Z,1.00
2023-04-20T09:30:42.657Z,0.80
2023-04-20T09:33:12.611Z,0.70
2023-04-20T09:35:42.008Z,0.60
2023-04-20T09:38:10.571Z,1.00
2023-04-20T09:40:38.582Z,0.90
2023-04-20T09:43:10.883Z,0.60
2023-04-20T09:45:41.155Z,0.60
2023-04-20T09:48:10.034Z,0.80
2023-04-20T09:50:48.319Z,0.50
2023-04-20T09:53:18.461Z,0.55
2023-04-20T09:55:48.054Z,1.50
2023-04-20T09:58:16.652Z,1.45
2023-04-20T10:00:46.167Z,1.27
2023-04-20T10:03:18.188Z,1.40
2023-04-20T10:05:46.533Z,2.10
2023-04-20T10:08:14.811Z,1.50
2023-04-20T10:10:46.916Z,0.95
2023-04-20T10:13:15.930Z,1.05
2023-04-20T10:15:45.293Z,1.25
2023-04-20T10:18:18.766Z,1.08
2023-04-20T10:20:47.176Z,1.55
2023-04-20T10:23:16.344Z,1.35
2023-04-20T10:25:45.455Z,0.82
2023-04-20T10:28:13.571Z,0.60
2023-04-20T10:30:53.298Z,0.93
2023-04-20T10:33:22.790Z,1.10
2023-04-20T10:35:54.973Z,0.70
2023-04-20T10:38:31.679Z,1.00
2023-04-20T10:41:07.376Z,0.90
2023-04-20T10:43:38.905Z,0.82
2023-04-20T10:46:16.517Z,0.73
2023-04-20T10:48:55.152Z,1.10
2023-04-20T10:51:23.830Z,0.70
2023-04-20T10:54:04.556Z,0.65
2023-04-20T10:56:40.018Z,0.90
2023-04-20T10:59:09.023Z,0.70
2023-04-20T11:01:38.896Z,1.00
2023-04-20T11:04:07.340Z,0.57
2023-04-20T11:06:35.779Z,0.80
2023-04-20T11:09:04.246Z,0.70
2023-04-20T11:11:32.103Z,0.75
2023-04-20T11:14:09.737Z,0.85
2023-04-20T11:16:50.881Z,0.90
2023-04-20T11:19:30.614Z,0.80
2023-04-20T11:21:59.188Z,0.80
2023-04-20T11:24:28.908Z,0.80
2023-04-20T11:26:58.022Z,1.40
2023-04-20T11:29:30.904Z,1.05
2023-04-20T11:32:01.902Z,1.38
2023-04-20T11:34:30.131Z,0.98
2023-04-20T11:36:59.528Z,1.00
2023-04-20T11:39:29.612Z,4.45
2023-04-20T11:41:58.172Z,13.30
2023-04-20T11:44:27.318Z,34.05
2023-04-20T11:46:57.315Z,69.05
2023-04-20T11:49:28.272Z,134.13
2023-04-20T11:51:56.493Z,138.43
2023-04-20T11:54:25.393Z,97.03
2023-04-20T11:56:53.360Z,75.38
2023-04-20T11:59:21.864Z,52.28
2023-04-20T12:01:50.028Z,39.10
2023-04-20T12:04:18.360Z,32.10
2023-04-20T12:06:48.323Z,25.90
2023-04-20T12:09:17.070Z,19.85
2023-04-20T12:11:45.553Z,14.93
2023-04-20T12:14:13.577Z,12.40
2023-04-20T12:16:41.649Z,10.38
2023-04-20T12:19:09.625Z,8.82
2023-04-20T12:21:37.645Z,7.15
2023-04-20T12:24:07.920Z,5.60
2023-04-20T12:26:38.765Z,4.10
2023-04-20T12:29:07.534Z,4.15
2023-04-20T12:31:36.562Z,4.18
2023-04-20T12:34:04.874Z,3.75
2023-04-20T12:36:34.878Z,3.58
2023-04-20T12:39:04.190Z,2.63
2023-04-20T12:41:34.391Z,2.97
2023-04-20T12:44:05.114Z,2.20
2023-04-20T12:46:33.606Z,1.98
2023-04-20T12:49:01.537Z,1.70
2023-04-20T12:51:29.755Z,1.92
2023-04-20T12:53:57.713Z,1.60
2023-04-20T12:56:28.835Z,1.80
2023-04-20T12:58:58.194Z,1.55
2023-04-20T13:01:26.654Z,1.50
2023-04-20T13:03:54.797Z,1.75
2023-04-20T13:06:22.916Z,1.58
2023-04-20T13:08:51.523Z,1.38
2023-04-20T13:11:19.490Z,1.25
2023-04-20T13:13:47.503Z,1.42
2023-04-20T13:16:16.929Z,1.25
2023-04-20T13:18:45.278Z,1.38
2023-04-20T13:21:13.196Z,1.40
2023-04-20T13:23:41.282Z,1.48
2023-04-20T13:26:09.174Z,1.00
2023-04-20T13:28:37.693Z,1.20
2023-04-20T13:31:06.332Z,1.08
2023-04-20T13:33:35.789Z,0.80
2023-04-20T13:36:04.050Z,0.93
2023-04-20T13:38:32.107Z,1.15
2023-04-20T13:41:00.074Z,1.20
2023-04-20T13:43:28.089Z,1.20
2023-04-20T13:45:56.056Z,0.98
2023-04-20T13:48:24.086Z,1.05
2023-04-20T13:50:54.221Z,0.90
2023-04-20T13:53:22.687Z,1.05
2023-04-20T13:55:50.959Z,1.00
2023-04-20T13:58:18.980Z,1.00
2023-04-20T14:00:47.569Z,0.75
2023-04-20T14:03:15.849Z,0.90
2023-04-20T14:05:44.852Z,0.95
2023-04-20T14:08:14.861Z,1.20
2023-04-20T14:10:42.957Z,0.80
2023-04-20T14:13:10.916Z,0.90
2023-04-20T14:15:39.077Z,0.88
2023-04-20T14:18:07.283Z,0.95
2023-04-20T14:20:35.486Z,0.77
2023-04-20T14:23:03.461Z,0.85
2023-04-20T14:25:32.828Z,1.02
2023-04-20T14:28:00.718Z,0.73
2023-04-20T14:30:28.826Z,1.00
2023-04-20T14:32:58.045Z,0.85
2023-04-20T14:35:27.671Z,0.50
2023-04-20T14:37:55.640Z,1.10
2023-04-20T14:40:23.773Z,0.90
2023-04-20T14:42:53.252Z,0.80
2023-04-20T14:45:22.256Z,1.08
2023-04-20T14:47:54.151Z,0.68
2023-04-20T14:50:23.343Z,0.75
2023-04-20T14:52:51.208Z,0.68
2023-04-20T14:55:23.337Z,0.55
2023-04-20T14:57:56.088Z,0.77
2023-04-20T15:00:25.188Z,0.70
2023-04-20T15:02:56.318Z,0.65
2023-04-20T15:05:24.908Z,0.50
2023-04-20T15:07:53.157Z,0.40
2023-04-20T15:10:21.731Z,0.60
2023-04-20T15:12:50.335Z,0.40
2023-04-20T15:15:19.910Z,0.70
2023-04-20T15:17:48.015Z,0.70
2023-04-20T15:20:16.502Z,0.55
2023-04-20T15:22:44.592Z,0.50
2023-04-20T15:25:12.927Z,0.47
2023-04-20T15:27:41.032Z,0.60
2023-04-20T15:30:09.735Z,0.55
2023-04-20T15:32:40.231Z,0.43
2023-04-20T15:35:08.516Z,0.60
2023-04-20T15:37:36.477Z,0.50
2023-04-20T15:40:05.477Z,0.40
2023-04-20T15:42:33.916Z,0.85
2023-04-20T15:45:01.969Z,0.50
2023-04-20T15:47:29.953Z,0.70
2023-04-20T15:50:01.725Z,0.40
2023-04-20T15:52:30.611Z,0.68
2023-04-20T15:54:58.664Z,0.50
2023-04-20T15:57:26.695Z,0.55
2023-04-20T15:59:54.707Z,0.50
2023-04-20T16:02:22.859Z,0.40
2023-04-20T16:04:51.027Z,0.40
2023-04-20T16:07:21.004Z,0.55
2023-04-20T16:09:48.920Z,0.80
2023-04-20T16:12:16.851Z,0.70
2023-04-20T16:14:44.885Z,0.95
2023-04-20T16:17:12.812Z,0.52
2023-04-20T16:19:41.481Z,0.52
2023-04-20T16:22:09.407Z,0.50
2023-04-20T16:24:39.341Z,0.65
2023-04-20T16:27:07.501Z,0.47
2023-04-20T16:29:35.491Z,0.68
2023-04-20T16:32:03.478Z,0.60
2023-04-20T16:34:31.661Z,0.57
2023-04-20T16:37:00.730Z,0.75
2023-04-20T16:39:28.754Z,0.50
2023-04-20T16:41:58.736Z,0.55
2023-04-20T16:44:26.777Z,0.60
2023-04-20T16:46:54.882Z,0.50
2023-04-20T16:49:22.917Z,0.57
2023-04-20T16:51:50.948Z,0.75
2023-04-20T16:54:19.042Z,0.45
2023-04-20T16:56:47.217Z,0.60
2023-04-20T16:59:16.593Z,0.55
2023-04-20T17:01:44.612Z,0.80
2023-04-20T17:04:12.716Z,0.73
2023-04-20T17:06:40.870Z,0.60
2023-04-20T17:09:11.246Z,0.80
2023-04-20T17:11:39.943Z,0.80
2023-04-20T17:14:09.642Z,0.50
2023-04-20T17:16:39.019Z,0.60
2023-04-20T17:19:07.036Z,0.60
2023-04-20T17:21:34.989Z,0.75
2023-04-20T17:24:03.022Z,0.80
2023-04-20T17:26:31.116Z,0.47
2023-04-20T17:28:59.145Z,0.70
2023-04-20T17:31:27.266Z,0.75
2023-04-20T17:33:56.672Z,0.60
2023-04-20T17:36:24.756Z,0.80
2023-04-20T17:38:52.710Z,0.68
2023-04-20T17:41:20.790Z,1.05
2023-04-20T17:43:51.368Z,1.02
2023-04-20T17:46:19.546Z,1.05
2023-04-20T17:48:47.576Z,0.60
2023-04-20T17:51:16.907Z,0.80
2023-04-20T17:53:45.097Z,0.85
2023-04-20T17:56:13.178Z,1.00
2023-04-20T17:58:41.160Z,0.85
2023-04-20T18:01:09.245Z,1.70
2023-04-20T18:03:37.466Z,32.08
2023-04-20T18:06:06.002Z,49.20
2023-04-20T18:08:35.657Z,59.00
2023-04-20T18:11:05.544Z,33.92
2023-04-20T18:13:33.610Z,23.15
2023-04-20T18:16:06.632Z,18.45
2023-04-20T18:18:35.919Z,15.65
2023-04-20T18:21:04.823Z,10.95
2023-04-20T18:23:33.408Z,9.45
2023-04-20T18:26:03.233Z,7.35
2023-04-20T18:28:31.357Z,6.05
2023-04-20T18:31:00.945Z,6.15
2023-04-20T18:33:29.028Z,4.57
2023-04-20T18:35:56.936Z,4.00
2023-04-20T18:38:24.938Z,3.50
2023-04-20T18:40:53.204Z,4.10
2023-04-20T18:43:22.620Z,3.70
2023-04-20T18:45:50.741Z,3.35
2023-04-20T18:48:18.911Z,2.53
2023-04-20T18:50:48.045Z,3.30
2023-04-20T18:53:16.780Z,2.50
2023-04-20T18:55:44.845Z,2.70
2023-04-20T18:58:12.874Z,2.75
2023-04-20T19:00:42.725Z,2.10
2023-04-20T19:03:13.126Z,2.30
2023-04-20T19:05:41.399Z,1.75
2023-04-20T19:08:09.276Z,1.83
2023-04-20T19:10:37.240Z,1.90
2023-04-20T19:13:05.156Z,1.48
2023-04-20T19:15:33.552Z,1.52
2023-04-20T19:18:02.996Z,2.10
2023-04-20T19:20:31.021Z,1.77
2023-04-20T19:22:59.082Z,2.03
2023-04-20T19:25:27.128Z,2.03
2023-04-20T19:27:55.376Z,1.85
2023-04-20T19:30:23.450Z,1.50
2023-04-20T19:32:51.557Z,1.70
2023-04-20T19:35:21.190Z,1.60
2023-04-20T19:37:49.145Z,1.23
2023-04-20T19:40:17.338Z,1.40
2023-04-20T19:42:45.361Z,1.55
2023-04-20T19:45:13.256Z,1.25
2023-04-20T19:47:41.556Z,1.63
2023-04-20T19:50:09.809Z,1.90
2023-04-20T19:52:39.255Z,1.52
2023-04-20T19:55:08.196Z,1.80
2023-04-20T19:57:36.198Z,1.65
2023-04-20T20:00:07.426Z,1.38
2023-04-20T20:02:41.309Z,1.48
2023-04-20T20:05:10.100Z,1.60
2023-04-20T20:07:39.756Z,1.35
2023-04-20T20:10:08.447Z,1.60
2023-04-20T20:12:36.305Z,1.38
2023-04-20T20:15:04.826Z,1.65
2023-04-20T20:17:32.984Z,1.20
2023-04-20T20:20:01.926Z,1.60
2023-04-20T20:22:30.043Z,1.52
2023-04-20T20:25:01.178Z,2.38
2023-04-20T20:27:29.446Z,1.50
2023-04-20T20:29:57.341Z,2.50
2023-04-20T20:32:25.901Z,1.83
2023-04-20T20:34:53.853Z,2.10
2023-04-20T20:37:22.151Z,1.67
2023-04-20T20:39:50.362Z,2.70
2023-04-20T20:42:20.147Z,2.10
2023-04-20T20:44:48.081Z,1.60
2023-04-20T20:47:16.079Z,2.75
2023-04-20T20:49:44.219Z,1.88
2023-04-20T20:52:12.164Z,1.75
2023-04-20T20:54:40.120Z,2.00
2023-04-20T20:57:08.136Z,2.28
2023-04-20T20:59:37.510Z,1.30
2023-04-20T21:02:05.623Z,1.67
2023-04-20T21:04:33.840Z,1.40
2023-04-20T21:07:01.880Z,1.50
2023-04-20T21:09:30.117Z,1.38
2023-04-20T21:12:00.106Z,1.98
2023-04-20T21:14:28.193Z,1.70
2023-04-20T21:16:57.664Z,1.50
2023-04-20T21:19:25.820Z,2.40
2023-04-20T21:21:53.883Z,1.95
2023-04-20T21:24:22.577Z,1.17
2023-04-20T21:26:50.556Z,1.33
2023-04-20T21:29:18.675Z,1.67
2023-04-20T21:31:46.949Z,1.52
2023-04-20T21:34:16.362Z,1.60
2023-04-20T21:36:44.270Z,2.30
2023-04-20T21:39:12.210Z,1.80
2023-04-20T21:41:40.512Z,1.73
2023-04-20T21:44:08.499Z,1.88
2023-04-20T21:46:36.597Z,1.65
2023-04-20T21:49:04.669Z,2.22
2023-04-20T21:51:34.047Z,2.75
2023-04-20T21:54:02.074Z,1.83
2023-04-20T21:56:30.255Z,3.05
2023-04-20T21:58:58.341Z,1.77
2023-04-20T22:01:26.491Z,1.90
2023-04-20T22:03:54.639Z,1.42
2023-04-20T22:06:23.228Z,1.50
2023-04-20T22:08:52.613Z,1.92
2023-04-20T22:11:21.152Z,2.10
2023-04-20T22:13:49.158Z,1.77
2023-04-20T22:16:18.050Z,2.22
2023-04-20T22:18:46.048Z,1.90
2023-04-20T22:21:13.994Z,1.80
2023-04-20T22:23:41.885Z,2.55
2023-04-20T22:26:11.309Z,1.60
2023-04-20T22:28:39.339Z,2.42
2023-04-20T22:31:07.318Z,2.00
2023-04-20T22:33:35.520Z,1.83
2023-04-20T22:36:04.465Z,1.95
2023-04-20T22:38:32.963Z,1.63
2023-04-20T22:41:01.329Z,2.47
2023-04-20T22:43:30.689Z,1.98
2023-04-20T22:45:58.853Z,2.30
2023-04-20T22:48:26.928Z,2.28
2023-04-20T22:50:55.327Z,2.75
2023-04-20T22:53:23.286Z,2.33
2023-04-20T22:55:51.270Z,2.47
2023-04-20T22:58:19.273Z,2.30
2023-04-20T23:00:48.599Z,2.90
2023-04-20T23:03:16.760Z,2.67
2023-04-20T23:05:45.049Z,1.85
2023-04-20T23:08:13.578Z,2.97
2023-04-20T23:10:41.899Z,3.00
2023-04-20T23:13:16.823Z,2.28
2023-04-20T23:15:44.918Z,2.53
2023-04-20T23:18:14.410Z,2.08
2023-04-20T23:20:42.538Z,2.15
2023-04-20T23:23:10.858Z,2.80
2023-04-20T23:25:39.319Z,2.80
2023-04-20T23:28:07.333Z,1.83
2023-04-20T23:30:35.283Z,2.30
2023-04-20T23:33:03.333Z,2.47
2023-04-20T23:35:32.827Z,2.13
2023-04-20T23:38:01.048Z,2.25
2023-04-20T23:40:28.902Z,2.03
2023-04-20T23:42:56.862Z,2.53
2023-04-20T23:45:24.935Z,2.25
2023-04-20T23:47:52.987Z,1.85
2023-04-20T23:50:21.163Z,1.80
2023-04-20T23:52:50.470Z,2.80
2023-04-20T23:55:18.549Z,2.15
2023-04-20T23:57:47.853Z,1.98
